sensor_id;sensor_type;location;lat;lon;timestamp;P1;durP1;ratioP1;P2;durP2;ratioP2
53261;SDS011;39658;51.090;-1.786;2023-04-03T00:00:39;7.93;;;2.50;;
53261;SDS011;39658;51.090;-1.786;2023-04-03T00:03:06;8.23;;;2.38;;
53261;SDS011;39658;51.090;-1.786;2023-04-03T00:05:33;11.68;;;2.88;;
53261;SDS011;39658;51.090;-1.786;2023-04-03T00:08:01;5.32;;;2.58;;
53261;SDS011;39658;51.090;-1.786;2023-04-03T00:10:29;8.65;;;2.63;;
53261;SDS011;39658;51.090;-1.786;2023-04-03T00:12:56;13.32;;;2.92;;
53261;SDS011;39658;51.090;-1.786;2023-04-03T00:15:23;6.60;;;2.95;;
53261;SDS011;39658;51.090;-1.786;2023-04-03T00:17:50;10.77;;;2.40;;
53261;SDS011;39658;51.090;-1.786;2023-04-03T00:20:16;9.70;;;2.67;;
53261;SDS011;39658;51.090;-1.786;2023-04-03T00:22:43;7.45;;;2.85;;
53261;SDS011;39658;51.090;-1.786;2023-04-03T00:25:12;10.63;;;4.05;;
53261;SDS011;39658;51.090;-1.786;2023-04-03T00:27:39;10.38;;;2.70;;
53261;SDS011;39658;51.090;-1.786;2023-04-03T00:30:07;10.32;;;2.78;;
53261;SDS011;39658;51.090;-1.786;2023-04-03T00:32:36;9.18;;;3.42;;
53261;SDS011;39658;51.090;-1.786;2023-04-03T00:35:03;8.35;;;2.72;;
53261;SDS011;39658;51.090;-1.786;2023-04-03T00:37:31;7.15;;;2.08;;
53261;SDS011;39658;51.090;-1.786;2023-04-03T00:39:58;11.48;;;2.88;;
53261;SDS011;39658;51.090;-1.786;2023-04-03T00:42:26;7.45;;;3.55;;
53261;SDS011;39658;51.090;-1.786;2023-04-03T00:45:22;9.18;;;2.85;;
53261;SDS011;39658;51.090;-1.786;2023-04-03T00:47:52;8.60;;;2.60;;
53261;SDS011;39658;51.090;-1.786;2023-04-03T00:50:20;6.95;;;2.88;;
53261;SDS011;39658;51.090;-1.786;2023-04-03T00:52:47;13.07;;;2.78;;
53261;SDS011;39658;51.090;-1.786;2023-04-03T00:55:15;16.88;;;3.00;;
53261;SDS011;39658;51.090;-1.786;2023-04-03T00:57:44;8.82;;;2.97;;
53261;SDS011;39658;51.090;-1.786;2023-04-03T01:00:13;6.85;;;2.65;;
53261;SDS011;39658;51.090;-1.786;2023-04-03T01:02:43;9.43;;;2.50;;
53261;SDS011;39658;51.090;-1.786;2023-04-03T01:05:10;10.48;;;2.97;;
53261;SDS011;39658;51.090;-1.786;2023-04-03T01:07:37;8.88;;;3.28;;
53261;SDS011;39658;51.090;-1.786;2023-04-03T01:10:06;10.00;;;3.30;;
53261;SDS011;39658;51.090;-1.786;2023-04-03T01:12:35;9.98;;;2.83;;
53261;SDS011;39658;51.090;-1.786;2023-04-03T01:15:06;11.25;;;3.17;;
53261;SDS011;39658;51.090;-1.786;2023-04-03T01:17:36;10.48;;;3.35;;
53261;SDS011;39658;51.090;-1.786;2023-04-03T01:22:59;7.40;;;2.88;;
53261;SDS011;39658;51.090;-1.786;2023-04-03T01:25:39;9.32;;;2.97;;
53261;SDS011;39658;51.090;-1.786;2023-04-03T01:28:09;6.35;;;2.83;;
53261;SDS011;39658;51.090;-1.786;2023-04-03T01:30:41;7.47;;;3.58;;
53261;SDS011;39658;51.090;-1.786;2023-04-03T01:33:13;6.65;;;2.60;;
53261;SDS011;39658;51.090;-1.786;2023-04-03T01:35:40;11.75;;;3.03;;
53261;SDS011;39658;51.090;-1.786;2023-04-03T01:38:07;12.02;;;3.33;;
53261;SDS011;39658;51.090;-1.786;2023-04-03T01:40:33;11.20;;;3.00;;
53261;SDS011;39658;51.090;-1.786;2023-04-03T01:43:00;11.43;;;3.53;;
53261;SDS011;39658;51.090;-1.786;2023-04-03T01:45:27;8.98;;;2.92;;
53261;SDS011;39658;51.090;-1.786;2023-04-03T01:47:54;9.90;;;3.28;;
53261;SDS011;39658;51.090;-1.786;2023-04-03T01:50:22;7.07;;;3.20;;
53261;SDS011;39658;51.090;-1.786;2023-04-03T01:52:49;13.25;;;3.33;;
53261;SDS011;39658;51.090;-1.786;2023-04-03T01:55:16;11.70;;;3.45;;
53261;SDS011;39658;51.090;-1.786;2023-04-03T01:57:42;10.38;;;3.13;;
53261;SDS011;39658;51.090;-1.786;2023-04-03T02:00:09;13.38;;;3.63;;
53261;SDS011;39658;51.090;-1.786;2023-04-03T02:02:37;11.15;;;3.22;;
53261;SDS011;39658;51.090;-1.786;2023-04-03T02:05:04;8.95;;;3.20;;
53261;SDS011;39658;51.090;-1.786;2023-04-03T02:07:32;9.32;;;3.30;;
53261;SDS011;39658;51.090;-1.786;2023-04-03T02:09:59;11.13;;;3.53;;
53261;SDS011;39658;51.090;-1.786;2023-04-03T02:12:26;9.63;;;3.42;;
53261;SDS011;39658;51.090;-1.786;2023-04-03T02:14:53;9.55;;;3.50;;
53261;SDS011;39658;51.090;-1.786;2023-04-03T02:17:19;10.52;;;3.53;;
53261;SDS011;39658;51.090;-1.786;2023-04-03T02:19:46;8.68;;;3.53;;
53261;SDS011;39658;51.090;-1.786;2023-04-03T02:22:13;12.95;;;3.20;;
53261;SDS011;39658;51.090;-1.786;2023-04-03T02:24:41;8.65;;;2.92;;
53261;SDS011;39658;51.090;-1.786;2023-04-03T02:27:08;8.00;;;3.33;;
53261;SDS011;39658;51.090;-1.786;2023-04-03T02:29:35;7.70;;;3.10;;
53261;SDS011;39658;51.090;-1.786;2023-04-03T02:32:01;12.63;;;2.83;;
53261;SDS011;39658;51.090;-1.786;2023-04-03T02:34:28;8.90;;;3.25;;
53261;SDS011;39658;51.090;-1.786;2023-04-03T02:36:55;7.43;;;2.60;;
53261;SDS011;39658;51.090;-1.786;2023-04-03T02:39:22;11.98;;;3.13;;
53261;SDS011;39658;51.090;-1.786;2023-04-03T02:41:50;10.20;;;3.22;;
53261;SDS011;39658;51.090;-1.786;2023-04-03T02:44:17;10.95;;;2.63;;
53261;SDS011;39658;51.090;-1.786;2023-04-03T02:46:43;11.05;;;2.85;;
53261;SDS011;39658;51.090;-1.786;2023-04-03T02:49:10;8.65;;;2.65;;
53261;SDS011;39658;51.090;-1.786;2023-04-03T02:51:37;8.43;;;2.75;;
53261;SDS011;39658;51.090;-1.786;2023-04-03T02:54:04;6.90;;;2.40;;
53261;SDS011;39658;51.090;-1.786;2023-04-03T02:56:31;6.60;;;2.45;;
53261;SDS011;39658;51.090;-1.786;2023-04-03T02:58:59;6.75;;;2.40;;
53261;SDS011;39658;51.090;-1.786;2023-04-03T03:01:26;5.15;;;1.83;;
53261;SDS011;39658;51.090;-1.786;2023-04-03T03:03:56;10.27;;;3.08;;
53261;SDS011;39658;51.090;-1.786;2023-04-03T03:06:23;11.05;;;2.53;;
53261;SDS011;39658;51.090;-1.786;2023-04-03T03:08:50;9.80;;;2.83;;
53261;SDS011;39658;51.090;-1.786;2023-04-03T03:11:16;7.97;;;2.85;;
53261;SDS011;39658;51.090;-1.786;2023-04-03T03:13:43;13.90;;;3.20;;
53261;SDS011;39658;51.090;-1.786;2023-04-03T03:16:12;10.32;;;2.50;;
53261;SDS011;39658;51.090;-1.786;2023-04-03T03:18:38;11.55;;;2.85;;
53261;SDS011;39658;51.090;-1.786;2023-04-03T03:21:05;9.00;;;2.72;;
53261;SDS011;39658;51.090;-1.786;2023-04-03T03:23:32;8.73;;;2.72;;
53261;SDS011;39658;51.090;-1.786;2023-04-03T03:26:00;8.18;;;2.95;;
53261;SDS011;39658;51.090;-1.786;2023-04-03T03:28:28;11.07;;;3.20;;
53261;SDS011;39658;51.090;-1.786;2023-04-03T03:30:56;8.02;;;3.42;;
53261;SDS011;39658;51.090;-1.786;2023-04-03T03:33:24;10.18;;;2.95;;
53261;SDS011;39658;51.090;-1.786;2023-04-03T03:35:51;10.05;;;2.85;;
53261;SDS011;39658;51.090;-1.786;2023-04-03T03:38:18;12.60;;;2.80;;
53261;SDS011;39658;51.090;-1.786;2023-04-03T03:40:46;8.77;;;2.15;;
53261;SDS011;39658;51.090;-1.786;2023-04-03T03:43:13;6.80;;;2.67;;
53261;SDS011;39658;51.090;-1.786;2023-04-03T03:45:40;7.40;;;2.88;;
53261;SDS011;39658;51.090;-1.786;2023-04-03T03:48:07;6.53;;;2.33;;
53261;SDS011;39658;51.090;-1.786;2023-04-03T03:50:35;5.72;;;2.08;;
53261;SDS011;39658;51.090;-1.786;2023-04-03T03:53:02;5.90;;;2.45;;
53261;SDS011;39658;51.090;-1.786;2023-04-03T03:55:28;10.00;;;2.67;;
53261;SDS011;39658;51.090;-1.786;2023-04-03T03:57:55;7.63;;;2.92;;
53261;SDS011;39658;51.090;-1.786;2023-04-03T04:00:22;7.43;;;2.97;;
53261;SDS011;39658;51.090;-1.786;2023-04-03T04:02:49;11.48;;;3.08;;
53261;SDS011;39658;51.090;-1.786;2023-04-03T04:05:15;8.60;;;2.67;;
53261;SDS011;39658;51.090;-1.786;2023-04-03T04:07:44;8.27;;;2.80;;
53261;SDS011;39658;51.090;-1.786;2023-04-03T04:10:11;10.93;;;3.17;;
53261;SDS011;39658;51.090;-1.786;2023-04-03T04:12:38;11.55;;;3.40;;
53261;SDS011;39658;51.090;-1.786;2023-04-03T04:15:06;6.97;;;3.35;;
53261;SDS011;39658;51.090;-1.786;2023-04-03T04:17:33;9.18;;;2.83;;
53261;SDS011;39658;51.090;-1.786;2023-04-03T04:20:00;14.23;;;3.00;;
53261;SDS011;39658;51.090;-1.786;2023-04-03T04:22:27;6.32;;;2.60;;
53261;SDS011;39658;51.090;-1.786;2023-04-03T04:24:56;10.32;;;3.22;;
53261;SDS011;39658;51.090;-1.786;2023-04-03T04:27:22;9.10;;;3.08;;
53261;SDS011;39658;51.090;-1.786;2023-04-03T04:29:49;11.20;;;3.17;;
53261;SDS011;39658;51.090;-1.786;2023-04-03T04:32:16;10.73;;;2.53;;
53261;SDS011;39658;51.090;-1.786;2023-04-03T04:34:43;11.95;;;2.72;;
53261;SDS011;39658;51.090;-1.786;2023-04-03T04:37:10;15.45;;;2.83;;
53261;SDS011;39658;51.090;-1.786;2023-04-03T04:39:36;5.70;;;2.33;;
53261;SDS011;39658;51.090;-1.786;2023-04-03T04:42:04;9.15;;;3.03;;
53261;SDS011;39658;51.090;-1.786;2023-04-03T04:44:32;8.98;;;2.40;;
53261;SDS011;39658;51.090;-1.786;2023-04-03T04:46:58;9.73;;;2.40;;
53261;SDS011;39658;51.090;-1.786;2023-04-03T04:49:25;9.73;;;2.25;;
53261;SDS011;39658;51.090;-1.786;2023-04-03T04:51:52;10.27;;;2.75;;
53261;SDS011;39658;51.090;-1.786;2023-04-03T04:54:19;13.98;;;2.88;;
53261;SDS011;39658;51.090;-1.786;2023-04-03T04:56:46;7.15;;;2.05;;
53261;SDS011;39658;51.090;-1.786;2023-04-03T04:59:14;7.72;;;2.42;;
53261;SDS011;39658;51.090;-1.786;2023-04-03T05:01:41;5.38;;;1.88;;
53261;SDS011;39658;51.090;-1.786;2023-04-03T05:04:08;5.10;;;1.77;;
53261;SDS011;39658;51.090;-1.786;2023-04-03T05:06:35;17.08;;;2.92;;
53261;SDS011;39658;51.090;-1.786;2023-04-03T05:09:02;7.38;;;1.83;;
53261;SDS011;39658;51.090;-1.786;2023-04-03T05:11:29;8.52;;;2.20;;
53261;SDS011;39658;51.090;-1.786;2023-04-03T05:13:55;7.97;;;1.75;;
53261;SDS011;39658;51.090;-1.786;2023-04-03T05:16:24;8.80;;;2.17;;
53261;SDS011;39658;51.090;-1.786;2023-04-03T05:18:51;15.10;;;2.15;;
53261;SDS011;39658;51.090;-1.786;2023-04-03T05:21:17;6.80;;;2.03;;
53261;SDS011;39658;51.090;-1.786;2023-04-03T05:23:44;11.32;;;2.67;;
53261;SDS011;39658;51.090;-1.786;2023-04-03T05:26:11;8.80;;;2.40;;
53261;SDS011;39658;51.090;-1.786;2023-04-03T05:28:38;7.50;;;2.20;;
53261;SDS011;39658;51.090;-1.786;2023-04-03T05:31:05;8.88;;;2.13;;
53261;SDS011;39658;51.090;-1.786;2023-04-03T05:33:33;5.95;;;2.00;;
53261;SDS011;39658;51.090;-1.786;2023-04-03T05:36:01;5.88;;;2.40;;
53261;SDS011;39658;51.090;-1.786;2023-04-03T05:38:30;14.13;;;3.47;;
53261;SDS011;39658;51.090;-1.786;2023-04-03T05:40:56;9.52;;;2.70;;
53261;SDS011;39658;51.090;-1.786;2023-04-03T05:43:23;5.53;;;2.28;;
53261;SDS011;39658;51.090;-1.786;2023-04-03T05:45:50;7.13;;;2.70;;
53261;SDS011;39658;51.090;-1.786;2023-04-03T05:48:17;9.15;;;2.45;;
53261;SDS011;39658;51.090;-1.786;2023-04-03T05:50:45;14.10;;;2.67;;
53261;SDS011;39658;51.090;-1.786;2023-04-03T05:53:14;8.63;;;2.55;;
53261;SDS011;39658;51.090;-1.786;2023-04-03T05:55:44;11.25;;;2.72;;
53261;SDS011;39658;51.090;-1.786;2023-04-03T05:58:11;7.53;;;2.45;;
53261;SDS011;39658;51.090;-1.786;2023-04-03T06:00:38;10.93;;;3.13;;
53261;SDS011;39658;51.090;-1.786;2023-04-03T06:03:05;9.82;;;2.88;;
53261;SDS011;39658;51.090;-1.786;2023-04-03T06:05:32;9.70;;;3.20;;
53261;SDS011;39658;51.090;-1.786;2023-04-03T06:08:00;8.57;;;2.72;;
53261;SDS011;39658;51.090;-1.786;2023-04-03T06:10:26;6.22;;;2.28;;
53261;SDS011;39658;51.090;-1.786;2023-04-03T06:12:53;8.68;;;2.72;;
53261;SDS011;39658;51.090;-1.786;2023-04-03T06:15:20;10.00;;;2.63;;
53261;SDS011;39658;51.090;-1.786;2023-04-03T06:17:48;7.57;;;2.60;;
53261;SDS011;39658;51.090;-1.786;2023-04-03T06:20:15;13.77;;;2.95;;
53261;SDS011;39658;51.090;-1.786;2023-04-03T06:22:41;11.88;;;2.40;;
53261;SDS011;39658;51.090;-1.786;2023-04-03T06:25:10;7.43;;;2.42;;
53261;SDS011;39658;51.090;-1.786;2023-04-03T06:27:37;10.50;;;2.92;;
53261;SDS011;39658;51.090;-1.786;2023-04-03T06:30:05;12.00;;;3.13;;
53261;SDS011;39658;51.090;-1.786;2023-04-03T06:32:33;8.65;;;3.15;;
53261;SDS011;39658;51.090;-1.786;2023-04-03T06:35:00;10.90;;;2.95;;
53261;SDS011;39658;51.090;-1.786;2023-04-03T06:37:26;6.50;;;2.05;;
53261;SDS011;39658;51.090;-1.786;2023-04-03T06:39:54;11.60;;;2.80;;
53261;SDS011;39658;51.090;-1.786;2023-04-03T06:42:22;12.32;;;2.25;;
53261;SDS011;39658;51.090;-1.786;2023-04-03T06:44:49;12.48;;;2.50;;
53261;SDS011;39658;51.090;-1.786;2023-04-03T06:47:16;14.07;;;2.10;;
53261;SDS011;39658;51.090;-1.786;2023-04-03T06:49:43;9.60;;;2.20;;
53261;SDS011;39658;51.090;-1.786;2023-04-03T06:52:10;5.63;;;2.25;;
53261;SDS011;39658;51.090;-1.786;2023-04-03T06:54:38;6.15;;;2.00;;
53261;SDS011;39658;51.090;-1.786;2023-04-03T06:57:05;10.95;;;2.53;;
53261;SDS011;39658;51.090;-1.786;2023-04-03T06:59:34;10.88;;;2.50;;
53261;SDS011;39658;51.090;-1.786;2023-04-03T07:02:01;6.95;;;2.30;;
53261;SDS011;39658;51.090;-1.786;2023-04-03T07:04:28;8.68;;;2.35;;
53261;SDS011;39658;51.090;-1.786;2023-04-03T07:06:55;9.20;;;2.10;;
53261;SDS011;39658;51.090;-1.786;2023-04-03T07:09:21;11.00;;;1.92;;
53261;SDS011;39658;51.090;-1.786;2023-04-03T07:11:48;6.18;;;1.77;;
53261;SDS011;39658;51.090;-1.786;2023-04-03T07:14:15;10.27;;;1.80;;
53261;SDS011;39658;51.090;-1.786;2023-04-03T07:16:43;6.35;;;2.13;;
53261;SDS011;39658;51.090;-1.786;2023-04-03T07:19:10;8.40;;;2.53;;
53261;SDS011;39658;51.090;-1.786;2023-04-03T07:21:36;8.57;;;1.90;;
53261;SDS011;39658;51.090;-1.786;2023-04-03T07:24:04;4.60;;;1.77;;
53261;SDS011;39658;51.090;-1.786;2023-04-03T07:26:30;9.50;;;1.75;;
53261;SDS011;39658;51.090;-1.786;2023-04-03T07:28:57;9.93;;;1.80;;
53261;SDS011;39658;51.090;-1.786;2023-04-03T07:31:24;9.70;;;1.90;;
53261;SDS011;39658;51.090;-1.786;2023-04-03T07:33:52;10.55;;;1.73;;
53261;SDS011;39658;51.090;-1.786;2023-04-03T07:36:20;5.70;;;1.58;;
53261;SDS011;39658;51.090;-1.786;2023-04-03T07:38:48;3.40;;;2.15;;
53261;SDS011;39658;51.090;-1.786;2023-04-03T07:41:15;9.23;;;1.75;;
53261;SDS011;39658;51.090;-1.786;2023-04-03T07:43:45;10.00;;;1.70;;
53261;SDS011;39658;51.090;-1.786;2023-04-03T07:46:14;14.27;;;1.95;;
53261;SDS011;39658;51.090;-1.786;2023-04-03T07:48:42;7.93;;;1.77;;
53261;SDS011;39658;51.090;-1.786;2023-04-03T07:51:11;9.82;;;1.77;;
53261;SDS011;39658;51.090;-1.786;2023-04-03T07:53:39;4.85;;;1.83;;
53261;SDS011;39658;51.090;-1.786;2023-04-03T07:56:06;6.88;;;2.10;;
53261;SDS011;39658;51.090;-1.786;2023-04-03T07:58:33;5.32;;;2.45;;
53261;SDS011;39658;51.090;-1.786;2023-04-03T08:01:00;6.65;;;1.42;;
53261;SDS011;39658;51.090;-1.786;2023-04-03T08:03:26;9.68;;;1.67;;
53261;SDS011;39658;51.090;-1.786;2023-04-03T08:05:53;4.00;;;1.67;;
53261;SDS011;39658;51.090;-1.786;2023-04-03T08:08:22;6.45;;;1.90;;
53261;SDS011;39658;51.090;-1.786;2023-04-03T08:10:51;6.47;;;2.10;;
53261;SDS011;39658;51.090;-1.786;2023-04-03T08:13:19;12.43;;;1.65;;
53261;SDS011;39658;51.090;-1.786;2023-04-03T08:15:46;7.10;;;1.83;;
53261;SDS011;39658;51.090;-1.786;2023-04-03T08:18:13;7.80;;;1.90;;
53261;SDS011;39658;51.090;-1.786;2023-04-03T08:20:40;8.85;;;1.80;;
53261;SDS011;39658;51.090;-1.786;2023-04-03T08:23:07;7.00;;;2.08;;
53261;SDS011;39658;51.090;-1.786;2023-04-03T08:25:37;8.25;;;2.17;;
53261;SDS011;39658;51.090;-1.786;2023-04-03T08:28:04;9.70;;;2.33;;
53261;SDS011;39658;51.090;-1.786;2023-04-03T08:30:31;8.13;;;1.83;;
53261;SDS011;39658;51.090;-1.786;2023-04-03T08:32:59;7.80;;;1.98;;
53261;SDS011;39658;51.090;-1.786;2023-04-03T08:35:26;9.00;;;2.20;;
53261;SDS011;39658;51.090;-1.786;2023-04-03T08:37:53;6.30;;;2.30;;
53261;SDS011;39658;51.090;-1.786;2023-04-03T08:40:21;4.72;;;1.63;;
53261;SDS011;39658;51.090;-1.786;2023-04-03T08:42:53;9.68;;;2.10;;
53261;SDS011;39658;51.090;-1.786;2023-04-03T08:45:33;7.28;;;2.20;;
53261;SDS011;39658;51.090;-1.786;2023-04-03T08:48:11;5.15;;;2.22;;
53261;SDS011;39658;51.090;-1.786;2023-04-03T08:50:42;8.55;;;2.45;;
53261;SDS011;39658;51.090;-1.786;2023-04-03T08:53:13;7.20;;;2.70;;
53261;SDS011;39658;51.090;-1.786;2023-04-03T08:55:43;7.65;;;2.47;;
53261;SDS011;39658;51.090;-1.786;2023-04-03T08:58:14;14.30;;;3.10;;
53261;SDS011;39658;51.090;-1.786;2023-04-03T09:00:44;6.70;;;2.50;;
53261;SDS011;39658;51.090;-1.786;2023-04-03T09:03:14;6.95;;;2.63;;
53261;SDS011;39658;51.090;-1.786;2023-04-03T09:05:43;7.53;;;2.88;;
53261;SDS011;39658;51.090;-1.786;2023-04-03T09:08:19;11.82;;;3.28;;
53261;SDS011;39658;51.090;-1.786;2023-04-03T09:10:53;7.57;;;2.55;;
53261;SDS011;39658;51.090;-1.786;2023-04-03T09:13:29;7.07;;;2.50;;
53261;SDS011;39658;51.090;-1.786;2023-04-03T09:16:02;10.05;;;2.88;;
53261;SDS011;39658;51.090;-1.786;2023-04-03T09:18:32;8.50;;;2.90;;
53261;SDS011;39658;51.090;-1.786;2023-04-03T09:21:08;9.20;;;2.92;;
53261;SDS011;39658;51.090;-1.786;2023-04-03T09:23:44;8.23;;;2.78;;
53261;SDS011;39658;51.090;-1.786;2023-04-03T09:26:14;8.60;;;3.35;;
53261;SDS011;39658;51.090;-1.786;2023-04-03T09:28:46;12.90;;;4.53;;
53261;SDS011;39658;51.090;-1.786;2023-04-03T09:31:16;9.32;;;4.00;;
53261;SDS011;39658;51.090;-1.786;2023-04-03T09:33:46;8.15;;;3.20;;
53261;SDS011;39658;51.090;-1.786;2023-04-03T09:39:05;8.75;;;3.70;;
53261;SDS011;39658;51.090;-1.786;2023-04-03T09:41:36;11.60;;;3.70;;
53261;SDS011;39658;51.090;-1.786;2023-04-03T09:44:17;10.70;;;3.63;;
53261;SDS011;39658;51.090;-1.786;2023-04-03T09:46:47;11.15;;;3.45;;
53261;SDS011;39658;51.090;-1.786;2023-04-03T09:49:14;10.23;;;3.70;;
53261;SDS011;39658;51.090;-1.786;2023-04-03T09:51:41;9.93;;;3.55;;
53261;SDS011;39658;51.090;-1.786;2023-04-03T09:57:05;10.35;;;4.47;;
53261;SDS011;39658;51.090;-1.786;2023-04-03T09:59:35;13.02;;;5.10;;
53261;SDS011;39658;51.090;-1.786;2023-04-03T10:04:47;10.95;;;4.28;;
53261;SDS011;39658;51.090;-1.786;2023-04-03T10:07:25;9.05;;;4.75;;
53261;SDS011;39658;51.090;-1.786;2023-04-03T10:09:54;10.48;;;4.88;;
53261;SDS011;39658;51.090;-1.786;2023-04-03T10:12:22;9.85;;;4.32;;
53261;SDS011;39658;51.090;-1.786;2023-04-03T10:14:54;10.23;;;4.15;;
53261;SDS011;39658;51.090;-1.786;2023-04-03T10:17:24;10.25;;;4.68;;
53261;SDS011;39658;51.090;-1.786;2023-04-03T10:20:02;11.10;;;4.88;;
53261;SDS011;39658;51.090;-1.786;2023-04-03T10:22:43;8.95;;;4.60;;
53261;SDS011;39658;51.090;-1.786;2023-04-03T10:25:17;7.82;;;4.40;;
53261;SDS011;39658;51.090;-1.786;2023-04-03T10:27:53;11.90;;;4.47;;
53261;SDS011;39658;51.090;-1.786;2023-04-03T10:33:20;8.85;;;3.97;;
53261;SDS011;39658;51.090;-1.786;2023-04-03T10:36:01;11.55;;;4.13;;
53261;SDS011;39658;51.090;-1.786;2023-04-03T10:38:37;13.15;;;5.70;;
53261;SDS011;39658;51.090;-1.786;2023-04-03T10:41:15;11.77;;;4.50;;
53261;SDS011;39658;51.090;-1.786;2023-04-03T10:43:50;8.13;;;4.07;;
53261;SDS011;39658;51.090;-1.786;2023-04-03T10:46:28;6.57;;;4.03;;
53261;SDS011;39658;51.090;-1.786;2023-04-03T10:49:10;10.38;;;5.05;;
53261;SDS011;39658;51.090;-1.786;2023-04-03T10:52:02;10.38;;;4.72;;
53261;SDS011;39658;51.090;-1.786;2023-04-03T10:54:38;8.85;;;4.25;;
53261;SDS011;39658;51.090;-1.786;2023-04-03T10:57:08;8.57;;;4.03;;
53261;SDS011;39658;51.090;-1.786;2023-04-03T10:59:38;11.38;;;4.00;;
53261;SDS011;39658;51.090;-1.786;2023-04-03T11:02:13;11.52;;;4.38;;
53261;SDS011;39658;51.090;-1.786;2023-04-03T11:04:46;12.48;;;4.38;;
53261;SDS011;39658;51.090;-1.786;2023-04-03T11:07:18;8.52;;;4.43;;
53261;SDS011;39658;51.090;-1.786;2023-04-03T11:09:48;9.27;;;4.78;;
53261;SDS011;39658;51.090;-1.786;2023-04-03T11:12:18;11.88;;;5.47;;
53261;SDS011;39658;51.090;-1.786;2023-04-03T11:14:51;11.43;;;5.70;;
53261;SDS011;39658;51.090;-1.786;2023-04-03T11:17:23;9.50;;;4.90;;
53261;SDS011;39658;51.090;-1.786;2023-04-03T11:19:59;8.35;;;4.32;;
53261;SDS011;39658;51.090;-1.786;2023-04-03T11:22:32;11.70;;;5.50;;
53261;SDS011;39658;51.090;-1.786;2023-04-03T11:25:04;9.98;;;5.82;;
53261;SDS011;39658;51.090;-1.786;2023-04-03T11:27:41;8.85;;;5.03;;
53261;SDS011;39658;51.090;-1.786;2023-04-03T11:30:14;10.23;;;5.68;;
53261;SDS011;39658;51.090;-1.786;2023-04-03T11:32:58;9.65;;;5.72;;
53261;SDS011;39658;51.090;-1.786;2023-04-03T11:35:36;8.10;;;4.97;;
53261;SDS011;39658;51.090;-1.786;2023-04-03T11:38:04;10.32;;;5.20;;
53261;SDS011;39658;51.090;-1.786;2023-04-03T11:40:32;8.40;;;4.97;;
53261;SDS011;39658;51.090;-1.786;2023-04-03T11:43:05;11.43;;;6.20;;
53261;SDS011;39658;51.090;-1.786;2023-04-03T11:45:38;11.23;;;6.35;;
53261;SDS011;39658;51.090;-1.786;2023-04-03T12:03:32;7.25;;;5.45;;
53261;SDS011;39658;51.090;-1.786;2023-04-03T12:09:26;9.75;;;6.65;;
53261;SDS011;39658;51.090;-1.786;2023-04-03T12:11:56;7.75;;;5.70;;
53261;SDS011;39658;51.090;-1.786;2023-04-03T12:14:26;8.18;;;5.78;;
53261;SDS011;39658;51.090;-1.786;2023-04-03T12:16:54;10.43;;;5.82;;
53261;SDS011;39658;51.090;-1.786;2023-04-03T12:19:32;9.18;;;5.32;;
53261;SDS011;39658;51.090;-1.786;2023-04-03T12:22:05;6.90;;;4.78;;
53261;SDS011;39658;51.090;-1.786;2023-04-03T12:24:36;8.65;;;5.68;;
53261;SDS011;39658;51.090;-1.786;2023-04-03T12:27:08;8.52;;;5.22;;
53261;SDS011;39658;51.090;-1.786;2023-04-03T12:29:43;7.13;;;4.00;;
53261;SDS011;39658;51.090;-1.786;2023-04-03T12:32:17;11.02;;;6.03;;
53261;SDS011;39658;51.090;-1.786;2023-04-03T12:35:08;9.73;;;6.45;;
53261;SDS011;39658;51.090;-1.786;2023-04-03T12:37:51;8.07;;;5.78;;
53261;SDS011;39658;51.090;-1.786;2023-04-03T12:40:31;8.38;;;5.78;;
53261;SDS011;39658;51.090;-1.786;2023-04-03T12:43:12;7.78;;;5.70;;
53261;SDS011;39658;51.090;-1.786;2023-04-03T12:48:18;9.20;;;5.10;;
53261;SDS011;39658;51.090;-1.786;2023-04-03T12:50:51;8.75;;;5.78;;
53261;SDS011;39658;51.090;-1.786;2023-04-03T12:53:18;9.40;;;5.60;;
53261;SDS011;39658;51.090;-1.786;2023-04-03T12:55:54;10.85;;;6.00;;
53261;SDS011;39658;51.090;-1.786;2023-04-03T12:58:22;11.60;;;6.85;;
53261;SDS011;39658;51.090;-1.786;2023-04-03T13:01:01;9.27;;;5.60;;
53261;SDS011;39658;51.090;-1.786;2023-04-03T13:03:29;8.10;;;5.82;;
53261;SDS011;39658;51.090;-1.786;2023-04-03T13:05:59;10.00;;;5.15;;
53261;SDS011;39658;51.090;-1.786;2023-04-03T13:08:28;8.45;;;5.10;;
53261;SDS011;39658;51.090;-1.786;2023-04-03T13:10:58;10.50;;;5.35;;
53261;SDS011;39658;51.090;-1.786;2023-04-03T13:13:28;9.73;;;5.63;;
53261;SDS011;39658;51.090;-1.786;2023-04-03T13:15:56;9.07;;;5.43;;
53261;SDS011;39658;51.090;-1.786;2023-04-03T13:18:24;8.00;;;4.95;;
53261;SDS011;39658;51.090;-1.786;2023-04-03T13:20:57;8.70;;;5.15;;
53261;SDS011;39658;51.090;-1.786;2023-04-03T13:23:28;9.00;;;5.43;;
53261;SDS011;39658;51.090;-1.786;2023-04-03T13:25:57;9.77;;;5.10;;
53261;SDS011;39658;51.090;-1.786;2023-04-03T13:28:28;7.28;;;5.43;;
53261;SDS011;39658;51.090;-1.786;2023-04-03T13:30:59;10.27;;;5.72;;
53261;SDS011;39658;51.090;-1.786;2023-04-03T13:33:31;10.35;;;6.93;;
53261;SDS011;39658;51.090;-1.786;2023-04-03T13:36:03;7.95;;;5.63;;
53261;SDS011;39658;51.090;-1.786;2023-04-03T13:38:32;12.68;;;6.60;;
53261;SDS011;39658;51.090;-1.786;2023-04-03T13:41:04;10.55;;;5.55;;
53261;SDS011;39658;51.090;-1.786;2023-04-03T13:43:47;11.40;;;5.95;;
53261;SDS011;39658;51.090;-1.786;2023-04-03T13:46:22;12.00;;;5.95;;
53261;SDS011;39658;51.090;-1.786;2023-04-03T13:48:52;10.18;;;5.75;;
53261;SDS011;39658;51.090;-1.786;2023-04-03T13:51:21;8.48;;;5.50;;
53261;SDS011;39658;51.090;-1.786;2023-04-03T13:53:52;9.68;;;5.53;;
53261;SDS011;39658;51.090;-1.786;2023-04-03T13:56:26;11.00;;;5.65;;
53261;SDS011;39658;51.090;-1.786;2023-04-03T13:59:01;11.35;;;5.57;;
53261;SDS011;39658;51.090;-1.786;2023-04-03T14:01:39;10.07;;;5.57;;
53261;SDS011;39658;51.090;-1.786;2023-04-03T14:04:16;10.75;;;5.75;;
53261;SDS011;39658;51.090;-1.786;2023-04-03T14:06:44;9.10;;;5.20;;
53261;SDS011;39658;51.090;-1.786;2023-04-03T14:09:11;8.35;;;5.22;;
53261;SDS011;39658;51.090;-1.786;2023-04-03T14:11:40;10.25;;;4.88;;
53261;SDS011;39658;51.090;-1.786;2023-04-03T14:14:12;10.07;;;5.13;;
53261;SDS011;39658;51.090;-1.786;2023-04-03T14:16:42;12.18;;;5.70;;
53261;SDS011;39658;51.090;-1.786;2023-04-03T14:19:14;9.82;;;5.78;;
53261;SDS011;39658;51.090;-1.786;2023-04-03T14:21:45;10.73;;;5.25;;
53261;SDS011;39658;51.090;-1.786;2023-04-03T14:24:12;9.55;;;5.70;;
53261;SDS011;39658;51.090;-1.786;2023-04-03T14:26:40;9.25;;;4.93;;
53261;SDS011;39658;51.090;-1.786;2023-04-03T14:29:09;8.50;;;4.97;;
53261;SDS011;39658;51.090;-1.786;2023-04-03T14:31:36;9.15;;;4.65;;
53261;SDS011;39658;51.090;-1.786;2023-04-03T14:34:03;9.43;;;4.57;;
53261;SDS011;39658;51.090;-1.786;2023-04-03T14:36:30;8.40;;;4.45;;
53261;SDS011;39658;51.090;-1.786;2023-04-03T14:38:58;8.93;;;5.13;;
53261;SDS011;39658;51.090;-1.786;2023-04-03T14:41:26;11.23;;;5.82;;
53261;SDS011;39658;51.090;-1.786;2023-04-03T14:43:56;9.35;;;5.82;;
53261;SDS011;39658;51.090;-1.786;2023-04-03T14:46:24;11.93;;;5.68;;
53261;SDS011;39658;51.090;-1.786;2023-04-03T14:48:53;11.23;;;5.20;;
53261;SDS011;39658;51.090;-1.786;2023-04-03T14:51:20;9.02;;;4.32;;
53261;SDS011;39658;51.090;-1.786;2023-04-03T14:53:47;8.52;;;3.90;;
53261;SDS011;39658;51.090;-1.786;2023-04-03T14:56:16;6.75;;;4.60;;
53261;SDS011;39658;51.090;-1.786;2023-04-03T14:58:46;8.25;;;4.75;;
53261;SDS011;39658;51.090;-1.786;2023-04-03T15:01:17;10.18;;;4.85;;
53261;SDS011;39658;51.090;-1.786;2023-04-03T15:03:44;8.02;;;4.15;;
53261;SDS011;39658;51.090;-1.786;2023-04-03T15:06:11;9.20;;;5.13;;
53261;SDS011;39658;51.090;-1.786;2023-04-03T15:08:39;9.57;;;4.97;;
53261;SDS011;39658;51.090;-1.786;2023-04-03T15:11:07;11.95;;;5.40;;
53261;SDS011;39658;51.090;-1.786;2023-04-03T15:13:35;7.38;;;4.30;;
53261;SDS011;39658;51.090;-1.786;2023-04-03T15:16:02;6.43;;;3.60;;